sensor_id;sensor_type;location;lat;lon;timestamp;P1;durP1;ratioP1;P2;durP2;ratioP2
76725;SDS011;65651;53.154;17.916;2023-09-18T00:01:04;13.90;;;10.30;;
76725;SDS011;65651;53.154;17.916;2023-09-18T00:03:39;10.60;;;9.20;;
76725;SDS011;65651;53.154;17.916;2023-09-18T00:06:07;13.10;;;9.90;;
76725;SDS011;65651;53.154;17.916;2023-09-18T00:08:35;14.40;;;10.80;;
76725;SDS011;65651;53.154;17.916;2023-09-18T00:11:05;13.40;;;9.50;;
76725;SDS011;65651;53.154;17.916;2023-09-18T00:13:34;14.70;;;10.00;;
76725;SDS011;65651;53.154;17.916;2023-09-18T00:16:02;12.10;;;9.80;;
76725;SDS011;65651;53.154;17.916;2023-09-18T00:18:30;13.60;;;10.40;;
76725;SDS011;65651;53.154;17.916;2023-09-18T00:20:58;13.40;;;10.00;;
76725;SDS011;65651;53.154;17.916;2023-09-18T00:23:25;11.50;;;9.70;;
76725;SDS011;65651;53.154;17.916;2023-09-18T00:25:53;18.20;;;10.50;;
76725;SDS011;65651;53.154;17.916;2023-09-18T00:28:20;14.90;;;10.50;;
76725;SDS011;65651;53.154;17.916;2023-09-18T00:30:50;14.80;;;10.00;;
76725;SDS011;65651;53.154;17.916;2023-09-18T00:33:17;15.20;;;10.80;;
76725;SDS011;65651;53.154;17.916;2023-09-18T00:35:48;16.00;;;10.20;;
76725;SDS011;65651;53.154;17.916;2023-09-18T00:38:17;12.70;;;9.00;;
76725;SDS011;65651;53.154;17.916;2023-09-18T00:40:46;15.00;;;10.80;;
76725;SDS011;65651;53.154;17.916;2023-09-18T00:43:14;14.00;;;10.30;;
76725;SDS011;65651;53.154;17.916;2023-09-18T00:45:42;15.60;;;10.40;;
76725;SDS011;65651;53.154;17.916;2023-09-18T00:48:12;14.00;;;11.00;;
76725;SDS011;65651;53.154;17.916;2023-09-18T00:50:42;12.20;;;10.30;;
76725;SDS011;65651;53.154;17.916;2023-09-18T00:53:13;17.70;;;11.40;;
76725;SDS011;65651;53.154;17.916;2023-09-18T00:55:44;13.10;;;10.30;;
76725;SDS011;65651;53.154;17.916;2023-09-18T00:58:12;12.90;;;9.90;;
76725;SDS011;65651;53.154;17.916;2023-09-18T01:00:40;13.20;;;10.90;;
76725;SDS011;65651;53.154;17.916;2023-09-18T01:03:08;13.70;;;9.80;;
76725;SDS011;65651;53.154;17.916;2023-09-18T01:05:39;13.40;;;10.20;;
76725;SDS011;65651;53.154;17.916;2023-09-18T01:08:06;15.90;;;11.10;;
76725;SDS011;65651;53.154;17.916;2023-09-18T01:10:35;11.40;;;10.10;;
76725;SDS011;65651;53.154;17.916;2023-09-18T01:13:08;13.60;;;10.50;;
76725;SDS011;65651;53.154;17.916;2023-09-18T01:15:42;15.80;;;10.80;;
76725;SDS011;65651;53.154;17.916;2023-09-18T01:18:31;15.90;;;11.30;;
76725;SDS011;65651;53.154;17.916;2023-09-18T01:20:59;15.50;;;11.50;;
76725;SDS011;65651;53.154;17.916;2023-09-18T01:23:26;13.50;;;9.90;;
76725;SDS011;65651;53.154;17.916;2023-09-18T01:25:54;16.20;;;11.10;;
76725;SDS011;65651;53.154;17.916;2023-09-18T01:28:21;14.40;;;11.40;;
76725;SDS011;65651;53.154;17.916;2023-09-18T01:30:48;12.10;;;10.00;;
76725;SDS011;65651;53.154;17.916;2023-09-18T01:33:16;15.60;;;11.90;;
76725;SDS011;65651;53.154;17.916;2023-09-18T01:35:45;13.30;;;11.20;;
76725;SDS011;65651;53.154;17.916;2023-09-18T01:38:14;17.30;;;11.50;;
76725;SDS011;65651;53.154;17.916;2023-09-18T01:40:41;15.50;;;12.00;;
76725;SDS011;65651;53.154;17.916;2023-09-18T01:43:09;15.40;;;11.40;;
76725;SDS011;65651;53.154;17.916;2023-09-18T01:45:37;15.70;;;12.20;;
76725;SDS011;65651;53.154;17.916;2023-09-18T01:48:05;13.10;;;11.10;;
76725;SDS011;65651;53.154;17.916;2023-09-18T01:50:34;17.70;;;11.90;;
76725;SDS011;65651;53.154;17.916;2023-09-18T01:53:06;15.10;;;11.40;;
76725;SDS011;65651;53.154;17.916;2023-09-18T01:55:34;15.80;;;11.30;;
76725;SDS011;65651;53.154;17.916;2023-09-18T01:58:02;17.20;;;11.50;;
76725;SDS011;65651;53.154;17.916;2023-09-18T02:00:29;13.70;;;10.20;;
76725;SDS011;65651;53.154;17.916;2023-09-18T02:02:58;16.40;;;11.60;;
76725;SDS011;65651;53.154;17.916;2023-09-18T02:05:25;17.10;;;11.10;;
76725;SDS011;65651;53.154;17.916;2023-09-18T02:07:52;13.50;;;11.00;;
76725;SDS011;65651;53.154;17.916;2023-09-18T02:10:19;13.70;;;10.80;;
76725;SDS011;65651;53.154;17.916;2023-09-18T02:12:46;13.70;;;10.70;;
76725;SDS011;65651;53.154;17.916;2023-09-18T02:15:14;14.70;;;10.90;;
76725;SDS011;65651;53.154;17.916;2023-09-18T02:17:43;13.70;;;10.60;;
76725;SDS011;65651;53.154;17.916;2023-09-18T02:20:11;14.20;;;10.70;;
76725;SDS011;65651;53.154;17.916;2023-09-18T02:22:38;14.70;;;10.30;;
76725;SDS011;65651;53.154;17.916;2023-09-18T02:25:08;16.10;;;11.10;;
76725;SDS011;65651;53.154;17.916;2023-09-18T02:27:36;15.80;;;11.40;;
76725;SDS011;65651;53.154;17.916;2023-09-18T02:30:04;16.00;;;11.30;;
76725;SDS011;65651;53.154;17.916;2023-09-18T02:32:32;13.40;;;11.20;;
76725;SDS011;65651;53.154;17.916;2023-09-18T02:34:59;17.80;;;12.70;;
76725;SDS011;65651;53.154;17.916;2023-09-18T02:37:26;14.90;;;11.40;;
76725;SDS011;65651;53.154;17.916;2023-09-18T02:39:55;15.90;;;11.40;;
76725;SDS011;65651;53.154;17.916;2023-09-18T02:42:23;15.50;;;11.60;;
76725;SDS011;65651;53.154;17.916;2023-09-18T02:44:50;17.10;;;11.10;;
76725;SDS011;65651;53.154;17.916;2023-09-18T02:47:17;16.50;;;12.00;;
76725;SDS011;65651;53.154;17.916;2023-09-18T02:49:48;21.20;;;13.20;;
76725;SDS011;65651;53.154;17.916;2023-09-18T02:52:15;18.80;;;11.70;;
76725;SDS011;65651;53.154;17.916;2023-09-18T02:54:42;15.80;;;11.50;;
76725;SDS011;65651;53.154;17.916;2023-09-18T02:57:10;21.80;;;10.90;;
76725;SDS011;65651;53.154;17.916;2023-09-18T02:59:38;17.70;;;12.50;;
76725;SDS011;65651;53.154;17.916;2023-09-18T03:02:05;18.00;;;11.40;;
76725;SDS011;65651;53.154;17.916;2023-09-18T03:04:33;16.40;;;11.80;;
76725;SDS011;65651;53.154;17.916;2023-09-18T03:07:01;18.60;;;12.70;;
76725;SDS011;65651;53.154;17.916;2023-09-18T03:09:29;17.50;;;12.20;;
76725;SDS011;65651;53.154;17.916;2023-09-18T03:11:56;17.20;;;12.50;;
76725;SDS011;65651;53.154;17.916;2023-09-18T03:14:25;16.00;;;12.60;;
76725;SDS011;65651;53.154;17.916;2023-09-18T03:16:52;20.00;;;14.10;;
76725;SDS011;65651;53.154;17.916;2023-09-18T03:19:19;18.20;;;12.70;;
76725;SDS011;65651;53.154;17.916;2023-09-18T03:21:49;19.30;;;13.30;;
76725;SDS011;65651;53.154;17.916;2023-09-18T03:24:17;16.80;;;12.40;;
76725;SDS011;65651;53.154;17.916;2023-09-18T03:26:44;17.70;;;13.10;;
76725;SDS011;65651;53.154;17.916;2023-09-18T03:29:14;24.90;;;13.10;;
76725;SDS011;65651;53.154;17.916;2023-09-18T03:31:41;17.10;;;12.90;;
76725;SDS011;65651;53.154;17.916;2023-09-18T03:34:09;17.90;;;13.60;;
76725;SDS011;65651;53.154;17.916;2023-09-18T03:36:36;19.00;;;13.50;;
76725;SDS011;65651;53.154;17.916;2023-09-18T03:39:06;18.30;;;13.60;;
76725;SDS011;65651;53.154;17.916;2023-09-18T03:41:33;20.00;;;14.00;;
76725;SDS011;65651;53.154;17.916;2023-09-18T03:44:02;22.30;;;14.30;;
76725;SDS011;65651;53.154;17.916;2023-09-18T03:46:30;22.10;;;15.20;;
76725;SDS011;65651;53.154;17.916;2023-09-18T03:48:58;21.00;;;14.40;;
76725;SDS011;65651;53.154;17.916;2023-09-18T03:51:25;24.70;;;15.20;;
76725;SDS011;65651;53.154;17.916;2023-09-18T03:53:52;21.00;;;14.90;;
76725;SDS011;65651;53.154;17.916;2023-09-18T03:56:20;23.20;;;14.70;;
76725;SDS011;65651;53.154;17.916;2023-09-18T03:58:48;27.90;;;15.90;;
76725;SDS011;65651;53.154;17.916;2023-09-18T04:01:18;23.90;;;16.30;;
76725;SDS011;65651;53.154;17.916;2023-09-18T04:03:46;25.00;;;18.30;;
76725;SDS011;65651;53.154;17.916;2023-09-18T04:06:13;27.40;;;17.10;;
76725;SDS011;65651;53.154;17.916;2023-09-18T04:08:40;22.50;;;15.10;;
76725;SDS011;65651;53.154;17.916;2023-09-18T04:11:10;22.30;;;15.10;;
76725;SDS011;65651;53.154;17.916;2023-09-18T04:13:38;25.00;;;15.20;;
76725;SDS011;65651;53.154;17.916;2023-09-18T04:16:05;25.00;;;16.90;;
76725;SDS011;65651;53.154;17.916;2023-09-18T04:18:33;24.70;;;17.20;;
76725;SDS011;65651;53.154;17.916;2023-09-18T04:21:00;25.00;;;16.20;;
76725;SDS011;65651;53.154;17.916;2023-09-18T04:23:27;23.60;;;17.30;;
76725;SDS011;65651;53.154;17.916;2023-09-18T04:25:55;24.20;;;17.00;;
76725;SDS011;65651;53.154;17.916;2023-09-18T04:28:25;24.50;;;17.10;;
76725;SDS011;65651;53.154;17.916;2023-09-18T04:30:52;21.00;;;15.80;;
76725;SDS011;65651;53.154;17.916;2023-09-18T04:33:21;27.00;;;17.30;;
76725;SDS011;65651;53.154;17.916;2023-09-18T04:35:48;27.10;;;18.00;;
76725;SDS011;65651;53.154;17.916;2023-09-18T04:38:15;30.90;;;18.40;;
76725;SDS011;65651;53.154;17.916;2023-09-18T04:40:44;32.70;;;17.90;;
76725;SDS011;65651;53.154;17.916;2023-09-18T04:43:13;42.60;;;19.00;;
76725;SDS011;65651;53.154;17.916;2023-09-18T04:45:40;37.00;;;20.60;;
76725;SDS011;65651;53.154;17.916;2023-09-18T04:48:09;28.00;;;17.70;;
76725;SDS011;65651;53.154;17.916;2023-09-18T04:50:37;36.00;;;18.40;;
76725;SDS011;65651;53.154;17.916;2023-09-18T04:53:04;29.70;;;18.20;;
76725;SDS011;65651;53.154;17.916;2023-09-18T04:55:32;24.10;;;16.20;;
76725;SDS011;65651;53.154;17.916;2023-09-18T04:57:59;23.80;;;15.80;;
76725;SDS011;65651;53.154;17.916;2023-09-18T05:00:27;26.50;;;16.20;;
76725;SDS011;65651;53.154;17.916;2023-09-18T05:02:59;26.70;;;16.20;;
76725;SDS011;65651;53.154;17.916;2023-09-18T05:05:28;25.80;;;17.10;;
76725;SDS011;65651;53.154;17.916;2023-09-18T05:07:56;21.40;;;15.20;;
76725;SDS011;65651;53.154;17.916;2023-09-18T05:10:24;23.40;;;15.80;;
76725;SDS011;65651;53.154;17.916;2023-09-18T05:12:52;24.20;;;15.40;;
76725;SDS011;65651;53.154;17.916;2023-09-18T05:15:25;24.00;;;16.50;;
76725;SDS011;65651;53.154;17.916;2023-09-18T05:17:56;20.40;;;14.90;;
76725;SDS011;65651;53.154;17.916;2023-09-18T05:20:25;21.40;;;14.50;;
76725;SDS011;65651;53.154;17.916;2023-09-18T05:22:55;20.70;;;13.60;;
76725;SDS011;65651;53.154;17.916;2023-09-18T05:25:24;20.70;;;14.30;;
76725;SDS011;65651;53.154;17.916;2023-09-18T05:27:53;16.90;;;13.70;;
76725;SDS011;65651;53.154;17.916;2023-09-18T05:30:25;18.40;;;13.10;;
76725;SDS011;65651;53.154;17.916;2023-09-18T05:33:01;18.10;;;13.20;;
76725;SDS011;65651;53.154;17.916;2023-09-18T05:35:39;20.60;;;12.10;;
76725;SDS011;65651;53.154;17.916;2023-09-18T05:38:09;18.70;;;11.90;;
76725;SDS011;65651;53.154;17.916;2023-09-18T05:40:42;20.30;;;10.20;;
76725;SDS011;65651;53.154;17.916;2023-09-18T05:43:11;14.20;;;10.40;;
76725;SDS011;65651;53.154;17.916;2023-09-18T05:45:39;14.90;;;10.40;;
76725;SDS011;65651;53.154;17.916;2023-09-18T05:48:07;14.00;;;11.20;;
76725;SDS011;65651;53.154;17.916;2023-09-18T05:50:35;14.40;;;9.90;;
76725;SDS011;65651;53.154;17.916;2023-09-18T05:53:07;14.50;;;10.40;;
76725;SDS011;65651;53.154;17.916;2023-09-18T05:55:35;17.60;;;10.50;;
76725;SDS011;65651;53.154;17.916;2023-09-18T05:58:02;14.80;;;10.30;;
76725;SDS011;65651;53.154;17.916;2023-09-18T06:00:34;15.00;;;10.20;;
76725;SDS011;65651;53.154;17.916;2023-09-18T06:03:01;13.30;;;9.70;;
76725;SDS011;65651;53.154;17.916;2023-09-18T06:05:29;16.50;;;9.00;;
76725;SDS011;65651;53.154;17.916;2023-09-18T06:07:58;14.80;;;10.00;;
76725;SDS011;65651;53.154;17.916;2023-09-18T06:10:28;12.20;;;9.60;;
76725;SDS011;65651;53.154;17.916;2023-09-18T06:12:56;17.50;;;9.00;;
76725;SDS011;65651;53.154;17.916;2023-09-18T06:15:24;17.80;;;8.70;;
76725;SDS011;65651;53.154;17.916;2023-09-18T06:17:51;11.60;;;8.70;;
76725;SDS011;65651;53.154;17.916;2023-09-18T06:20:20;15.80;;;8.90;;
76725;SDS011;65651;53.154;17.916;2023-09-18T06:22:48;18.40;;;8.20;;
76725;SDS011;65651;53.154;17.916;2023-09-18T06:25:15;19.50;;;8.50;;
76725;SDS011;65651;53.154;17.916;2023-09-18T06:27:43;18.90;;;8.60;;
76725;SDS011;65651;53.154;17.916;2023-09-18T06:30:13;12.80;;;7.50;;
76725;SDS011;65651;53.154;17.916;2023-09-18T06:32:42;12.90;;;7.50;;
76725;SDS011;65651;53.154;17.916;2023-09-18T06:35:12;16.80;;;8.10;;
76725;SDS011;65651;53.154;17.916;2023-09-18T06:37:41;11.90;;;8.30;;
76725;SDS011;65651;53.154;17.916;2023-09-18T06:40:09;11.80;;;8.00;;
76725;SDS011;65651;53.154;17.916;2023-09-18T06:42:36;10.40;;;7.20;;
76725;SDS011;65651;53.154;17.916;2023-09-18T06:45:05;11.90;;;8.10;;
76725;SDS011;65651;53.154;17.916;2023-09-18T06:47:36;12.80;;;7.60;;
76725;SDS011;65651;53.154;17.916;2023-09-18T06:50:04;10.40;;;7.50;;
76725;SDS011;65651;53.154;17.916;2023-09-18T06:52:32;12.10;;;8.30;;
76725;SDS011;65651;53.154;17.916;2023-09-18T06:54:59;9.80;;;8.40;;
76725;SDS011;65651;53.154;17.916;2023-09-18T06:57:27;8.70;;;7.40;;
76725;SDS011;65651;53.154;17.916;2023-09-18T06:59:57;9.70;;;7.50;;
76725;SDS011;65651;53.154;17.916;2023-09-18T07:02:25;9.90;;;8.00;;
76725;SDS011;65651;53.154;17.916;2023-09-18T07:04:52;9.70;;;7.00;;
76725;SDS011;65651;53.154;17.916;2023-09-18T07:07:19;10.00;;;7.20;;
76725;SDS011;65651;53.154;17.916;2023-09-18T07:09:52;8.40;;;7.30;;
76725;SDS011;65651;53.154;17.916;2023-09-18T07:12:19;11.60;;;7.60;;
76725;SDS011;65651;53.154;17.916;2023-09-18T07:14:46;13.30;;;6.40;;
76725;SDS011;65651;53.154;17.916;2023-09-18T07:17:14;12.80;;;7.50;;
76725;SDS011;65651;53.154;17.916;2023-09-18T07:19:42;15.00;;;6.80;;
76725;SDS011;65651;53.154;17.916;2023-09-18T07:22:09;10.90;;;6.60;;
76725;SDS011;65651;53.154;17.916;2023-09-18T07:24:37;15.40;;;7.10;;
76725;SDS011;65651;53.154;17.916;2023-09-18T07:27:07;13.20;;;6.80;;
76725;SDS011;65651;53.154;17.916;2023-09-18T07:29:37;14.90;;;7.20;;
76725;SDS011;65651;53.154;17.916;2023-09-18T07:32:04;10.30;;;7.40;;
76725;SDS011;65651;53.154;17.916;2023-09-18T07:34:32;11.40;;;7.60;;
76725;SDS011;65651;53.154;17.916;2023-09-18T07:36:59;14.60;;;7.30;;
76725;SDS011;65651;53.154;17.916;2023-09-18T07:39:26;8.90;;;6.90;;
76725;SDS011;65651;53.154;17.916;2023-09-18T07:41:54;11.40;;;6.80;;
76725;SDS011;65651;53.154;17.916;2023-09-18T07:44:22;10.80;;;7.70;;
76725;SDS011;65651;53.154;17.916;2023-09-18T07:46:49;9.70;;;7.60;;
76725;SDS011;65651;53.154;17.916;2023-09-18T07:49:17;13.70;;;8.00;;
76725;SDS011;65651;53.154;17.916;2023-09-18T07:51:44;12.30;;;7.70;;
76725;SDS011;65651;53.154;17.916;2023-09-18T07:54:14;11.90;;;8.20;;
76725;SDS011;65651;53.154;17.916;2023-09-18T07:56:42;13.50;;;8.20;;
76725;SDS011;65651;53.154;17.916;2023-09-18T07:59:10;10.60;;;8.20;;
76725;SDS011;65651;53.154;17.916;2023-09-18T08:01:37;10.60;;;8.20;;
76725;SDS011;65651;53.154;17.916;2023-09-18T08:04:04;14.60;;;8.40;;
76725;SDS011;65651;53.154;17.916;2023-09-18T08:06:32;9.40;;;8.30;;
76725;SDS011;65651;53.154;17.916;2023-09-18T08:09:00;13.20;;;8.90;;
76725;SDS011;65651;53.154;17.916;2023-09-18T08:11:28;18.10;;;8.80;;
76725;SDS011;65651;53.154;17.916;2023-09-18T08:13:55;11.20;;;7.90;;
76725;SDS011;65651;53.154;17.916;2023-09-18T08:16:22;10.90;;;7.40;;
76725;SDS011;65651;53.154;17.916;2023-09-18T08:18:50;12.10;;;7.90;;
76725;SDS011;65651;53.154;17.916;2023-09-18T08:21:17;12.90;;;7.00;;
76725;SDS011;65651;53.154;17.916;2023-09-18T08:23:44;9.60;;;7.40;;
76725;SDS011;65651;53.154;17.916;2023-09-18T08:26:14;15.40;;;8.30;;
76725;SDS011;65651;53.154;17.916;2023-09-18T08:28:44;13.80;;;7.40;;
76725;SDS011;65651;53.154;17.916;2023-09-18T08:31:12;13.70;;;6.20;;
76725;SDS011;65651;53.154;17.916;2023-09-18T08:33:39;11.70;;;6.90;;
76725;SDS011;65651;53.154;17.916;2023-09-18T08:36:09;11.00;;;6.70;;
76725;SDS011;65651;53.154;17.916;2023-09-18T08:38:36;10.30;;;6.40;;
76725;SDS011;65651;53.154;17.916;2023-09-18T08:41:03;18.10;;;6.90;;
76725;SDS011;65651;53.154;17.916;2023-09-18T08:43:32;10.10;;;6.90;;
76725;SDS011;65651;53.154;17.916;2023-09-18T08:46:00;15.90;;;8.00;;
76725;SDS011;65651;53.154;17.916;2023-09-18T08:48:30;15.30;;;7.80;;
76725;SDS011;65651;53.154;17.916;2023-09-18T08:51:05;13.00;;;6.00;;
76725;SDS011;65651;53.154;17.916;2023-09-18T08:53:35;11.20;;;6.40;;
76725;SDS011;65651;53.154;17.916;2023-09-18T08:56:04;13.60;;;6.90;;
76725;SDS011;65651;53.154;17.916;2023-09-18T08:58:32;10.60;;;6.90;;
76725;SDS011;65651;53.154;17.916;2023-09-18T09:01:04;11.00;;;6.90;;
76725;SDS011;65651;53.154;17.916;2023-09-18T09:03:32;13.90;;;6.60;;
76725;SDS011;65651;53.154;17.916;2023-09-18T09:06:01;9.10;;;5.80;;
76725;SDS011;65651;53.154;17.916;2023-09-18T09:08:32;8.10;;;6.50;;
76725;SDS011;65651;53.154;17.916;2023-09-18T09:11:02;8.10;;;5.70;;
76725;SDS011;65651;53.154;17.916;2023-09-18T09:13:30;7.80;;;6.40;;
76725;SDS011;65651;53.154;17.916;2023-09-18T09:15:58;8.80;;;5.70;;
76725;SDS011;65651;53.154;17.916;2023-09-18T09:18:27;7.50;;;5.10;;
76725;SDS011;65651;53.154;17.916;2023-09-18T09:20:58;10.60;;;6.10;;
76725;SDS011;65651;53.154;17.916;2023-09-18T09:23:29;6.90;;;5.30;;
76725;SDS011;65651;53.154;17.916;2023-09-18T09:26:20;11.30;;;5.70;;
76725;SDS011;65651;53.154;17.916;2023-09-18T09:28:52;5.90;;;4.20;;
76725;SDS011;65651;53.154;17.916;2023-09-18T09:31:23;6.50;;;4.70;;
76725;SDS011;65651;53.154;17.916;2023-09-18T09:33:54;9.40;;;4.10;;
76725;SDS011;65651;53.154;17.916;2023-09-18T09:36:25;6.20;;;4.00;;
76725;SDS011;65651;53.154;17.916;2023-09-18T09:38:56;13.10;;;4.50;;
76725;SDS011;65651;53.154;17.916;2023-09-18T09:41:25;5.60;;;4.40;;
76725;SDS011;65651;53.154;17.916;2023-09-18T09:43:54;5.10;;;3.50;;
76725;SDS011;65651;53.154;17.916;2023-09-18T09:46:24;9.40;;;4.20;;
76725;SDS011;65651;53.154;17.916;2023-09-18T09:48:59;6.20;;;3.90;;
76725;SDS011;65651;53.154;17.916;2023-09-18T09:51:28;6.10;;;4.10;;
76725;SDS011;65651;53.154;17.916;2023-09-18T09:53:56;7.00;;;4.20;;
76725;SDS011;65651;53.154;17.916;2023-09-18T09:59:14;8.00;;;3.90;;
76725;SDS011;65651;53.154;17.916;2023-09-18T10:01:42;4.10;;;3.70;;
76725;SDS011;65651;53.154;17.916;2023-09-18T10:04:14;6.90;;;3.70;;
76725;SDS011;65651;53.154;17.916;2023-09-18T10:06:44;3.40;;;3.10;;
76725;SDS011;65651;53.154;17.916;2023-09-18T10:09:20;6.00;;;3.40;;
76725;SDS011;65651;53.154;17.916;2023-09-18T10:11:54;4.30;;;3.10;;
76725;SDS011;65651;53.154;17.916;2023-09-18T10:14:30;7.60;;;3.20;;
76725;SDS011;65651;53.154;17.916;2023-09-18T10:17:05;4.20;;;3.50;;
76725;SDS011;65651;53.154;17.916;2023-09-18T10:19:43;6.80;;;3.80;;
76725;SDS011;65651;53.154;17.916;2023-09-18T10:25:07;7.20;;;3.30;;
76725;SDS011;65651;53.154;17.916;2023-09-18T10:27:47;5.50;;;3.90;;
76725;SDS011;65651;53.154;17.916;2023-09-18T10:30:16;4.90;;;4.10;;
76725;SDS011;65651;53.154;17.916;2023-09-18T10:32:46;4.80;;;3.10;;
76725;SDS011;65651;53.154;17.916;2023-09-18T10:35:15;5.90;;;3.50;;
76725;SDS011;65651;53.154;17.916;2023-09-18T10:37:42;7.10;;;3.70;;
76725;SDS011;65651;53.154;17.916;2023-09-18T10:40:10;6.00;;;3.60;;
76725;SDS011;65651;53.154;17.916;2023-09-18T10:42:40;5.00;;;4.10;;
76725;SDS011;65651;53.154;17.916;2023-09-18T10:45:10;40.40;;;6.50;;
76725;SDS011;65651;53.154;17.916;2023-09-18T10:47:39;6.90;;;4.00;;
76725;SDS011;65651;53.154;17.916;2023-09-18T10:50:08;8.80;;;4.30;;
76725;SDS011;65651;53.154;17.916;2023-09-18T10:52:42;6.40;;;4.10;;
76725;SDS011;65651;53.154;17.916;2023-09-18T10:55:11;8.60;;;3.60;;
76725;SDS011;65651;53.154;17.916;2023-09-18T10:58:03;8.30;;;4.30;;
76725;SDS011;65651;53.154;17.916;2023-09-18T11:00:29;5.10;;;3.90;;
76725;SDS011;65651;53.154;17.916;2023-09-18T11:03:16;7.40;;;4.20;;
76725;SDS011;65651;53.154;17.916;2023-09-18T11:05:45;5.10;;;4.10;;
76725;SDS011;65651;53.154;17.916;2023-09-18T11:13:45;8.30;;;4.00;;
76725;SDS011;65651;53.154;17.916;2023-09-18T11:19:04;8.30;;;4.80;;
76725;SDS011;65651;53.154;17.916;2023-09-18T11:21:33;6.80;;;4.70;;
76725;SDS011;65651;53.154;17.916;2023-09-18T11:24:01;6.50;;;4.40;;
76725;SDS011;65651;53.154;17.916;2023-09-18T11:26:31;9.00;;;4.60;;
76725;SDS011;65651;53.154;17.916;2023-09-18T11:29:03;5.60;;;3.90;;
76725;SDS011;65651;53.154;17.916;2023-09-18T11:31:55;10.10;;;4.60;;
76725;SDS011;65651;53.154;17.916;2023-09-18T11:34:25;9.80;;;4.00;;
76725;SDS011;65651;53.154;17.916;2023-09-18T11:37:02;6.40;;;3.80;;
76725;SDS011;65651;53.154;17.916;2023-09-18T11:39:47;5.90;;;3.60;;
76725;SDS011;65651;53.154;17.916;2023-09-18T11:42:20;8.70;;;4.20;;
76725;SDS011;65651;53.154;17.916;2023-09-18T11:44:53;4.60;;;3.60;;
76725;SDS011;65651;53.154;17.916;2023-09-18T11:47:24;5.00;;;3.30;;
76725;SDS011;65651;53.154;17.916;2023-09-18T11:49:56;7.10;;;4.20;;
76725;SDS011;65651;53.154;17.916;2023-09-18T11:52:28;8.70;;;4.20;;
76725;SDS011;65651;53.154;17.916;2023-09-18T11:54:59;5.00;;;4.30;;
76725;SDS011;65651;53.154;17.916;2023-09-18T11:57:35;5.30;;;3.60;;
76725;SDS011;65651;53.154;17.916;2023-09-18T12:00:02;5.70;;;3.10;;
76725;SDS011;65651;53.154;17.916;2023-09-18T12:02:39;6.20;;;4.20;;
76725;SDS011;65651;53.154;17.916;2023-09-18T12:05:10;7.20;;;4.50;;
76725;SDS011;65651;53.154;17.916;2023-09-18T12:07:41;7.10;;;4.00;;
76725;SDS011;65651;53.154;17.916;2023-09-18T12:10:16;6.10;;;3.30;;
76725;SDS011;65651;53.154;17.916;2023-09-18T12:12:45;6.00;;;4.00;;
76725;SDS011;65651;53.154;17.916;2023-09-18T12:15:13;6.10;;;3.70;;
76725;SDS011;65651;53.154;17.916;2023-09-18T12:17:44;7.80;;;3.90;;
76725;SDS011;65651;53.154;17.916;2023-09-18T12:20:16;9.00;;;3.80;;
76725;SDS011;65651;53.154;17.916;2023-09-18T12:22:48;7.90;;;3.70;;
76725;SDS011;65651;53.154;17.916;2023-09-18T12:25:17;7.70;;;5.40;;
76725;SDS011;65651;53.154;17.916;2023-09-18T12:27:45;11.20;;;4.20;;
76725;SDS011;65651;53.154;17.916;2023-09-18T12:30:13;5.40;;;3.80;;
76725;SDS011;65651;53.154;17.916;2023-09-18T12:32:48;7.70;;;3.80;;
76725;SDS011;65651;53.154;17.916;2023-09-18T12:35:19;5.20;;;3.40;;
76725;SDS011;65651;53.154;17.916;2023-09-18T12:37:46;5.80;;;3.50;;
76725;SDS011;65651;53.154;17.916;2023-09-18T12:40:26;7.60;;;3.90;;
76725;SDS011;65651;53.154;17.916;2023-09-18T12:42:56;10.20;;;3.70;;
76725;SDS011;65651;53.154;17.916;2023-09-18T12:45:28;7.00;;;3.60;;
76725;SDS011;65651;53.154;17.916;2023-09-18T12:47:56;6.40;;;3.30;;
76725;SDS011;65651;53.154;17.916;2023-09-18T12:50:25;8.50;;;4.70;;
76725;SDS011;65651;53.154;17.916;2023-09-18T12:53:06;4.80;;;3.90;;
76725;SDS011;65651;53.154;17.916;2023-09-18T12:55:35;8.60;;;4.10;;
76725;SDS011;65651;53.154;17.916;2023-09-18T12:58:04;7.00;;;4.40;;
76725;SDS011;65651;53.154;17.916;2023-09-18T13:00:34;6.90;;;4.50;;
76725;SDS011;65651;53.154;17.916;2023-09-18T13:03:12;8.10;;;4.40;;
76725;SDS011;65651;53.154;17.916;2023-09-18T13:05:41;6.10;;;4.30;;
76725;SDS011;65651;53.154;17.916;2023-09-18T13:08:08;8.10;;;4.70;;
76725;SDS011;65651;53.154;17.916;2023-09-18T13:10:45;5.70;;;3.80;;
76725;SDS011;65651;53.154;17.916;2023-09-18T13:13:22;5.30;;;4.20;;
76725;SDS011;65651;53.154;17.916;2023-09-18T13:15:50;6.90;;;4.60;;
76725;SDS011;65651;53.154;17.916;2023-09-18T13:18:19;7.20;;;4.40;;
76725;SDS011;65651;53.154;17.916;2023-09-18T13:20:46;6.70;;;4.40;;
76725;SDS011;65651;53.154;17.916;2023-09-18T13:23:14;4.40;;;4.00;;
76725;SDS011;65651;53.154;17.916;2023-09-18T13:25:42;7.20;;;4.50;;
76725;SDS011;65651;53.154;17.916;2023-09-18T13:28:14;10.00;;;4.60;;
76725;SDS011;65651;53.154;17.916;2023-09-18T13:30:41;7.40;;;4.60;;
76725;SDS011;65651;53.154;17.916;2023-09-18T13:33:12;10.90;;;4.60;;
76725;SDS011;65651;53.154;17.916;2023-09-18T13:35:54;12.70;;;4.70;;
76725;SDS011;65651;53.154;17.916;2023-09-18T13:38:30;8.30;;;5.20;;
76725;SDS011;65651;53.154;17.916;2023-09-18T13:40:57;14.20;;;5.20;;
76725;SDS011;65651;53.154;17.916;2023-09-18T13:43:24;10.40;;;4.80;;
76725;SDS011;65651;53.154;17.916;2023-09-18T13:45:54;8.70;;;4.70;;
76725;SDS011;65651;53.154;17.916;2023-09-18T13:48:23;8.70;;;4.60;;
76725;SDS011;65651;53.154;17.916;2023-09-18T13:50:51;7.30;;;4.30;;
76725;SDS011;65651;53.154;17.916;2023-09-18T13:53:19;6.10;;;4.30;;
76725;SDS011;65651;53.154;17.916;2023-09-18T13:55:46;8.00;;;4.50;;
76725;SDS011;65651;53.154;17.916;2023-09-18T13:58:16;5.10;;;3.50;;
76725;SDS011;65651;53.154;17.916;2023-09-18T14:00:44;8.80;;;4.30;;
76725;SDS011;65651;53.154;17.916;2023-09-18T14:03:11;8.70;;;4.50;;
76725;SDS011;65651;53.154;17.916;2023-09-18T14:05:42;12.90;;;5.00;;
76725;SDS011;65651;53.154;17.916;2023-09-18T14:08:09;5.60;;;3.90;;
76725;SDS011;65651;53.154;17.916;2023-09-18T14:10:36;5.70;;;3.30;;
76725;SDS011;65651;53.154;17.916;2023-09-18T14:13:06;6.40;;;3.70;;
76725;SDS011;65651;53.154;17.916;2023-09-18T14:15:34;9.20;;;3.30;;
76725;SDS011;65651;53.154;17.916;2023-09-18T14:18:02;8.00;;;4.20;;
76725;SDS011;65651;53.154;17.916;2023-09-18T14:20:30;10.50;;;4.00;;
76725;SDS011;65651;53.154;17.916;2023-09-18T14:22:58;5.40;;;4.00;;
76725;SDS011;65651;53.154;17.916;2023-09-18T14:25:26;5.90;;;4.30;;
76725;SDS011;65651;53.154;17.916;2023-09-18T14:27:54;5.70;;;3.60;;
76725;SDS011;65651;53.154;17.916;2023-09-18T14:30:22;10.00;;;4.00;;
76725;SDS011;65651;53.154;17.916;2023-09-18T14:32:53;7.20;;;4.30;;
76725;SDS011;65651;53.154;17.916;2023-09-18T14:35:20;11.00;;;4.70;;
76725;SDS011;65651;53.154;17.916;2023-09-18T14:37:47;7.20;;;4.50;;
76725;SDS011;65651;53.154;17.916;2023-09-18T14:40:15;11.80;;;5.10;;
76725;SDS011;65651;53.154;17.916;2023-09-18T14:42:42;10.00;;;4.60;;
76725;SDS011;65651;53.154;17.916;2023-09-18T14:45:09;8.20;;;4.40;;
76725;SDS011;65651;53.154;17.916;2023-09-18T14:47:39;10.30;;;5.00;;